sensor_id;sensor_type;location;lat;lon;timestamp;P1;durP1;ratioP1;P2;durP2;ratioP2
72132;SDS011;60008;50.826;6.896;2022-09-09T00:09:54;1.80;;;0.40;;
72132;SDS011;60008;50.826;6.896;2022-09-09T00:15:22;1.83;;;0.60;;
72132;SDS011;60008;50.826;6.896;2022-09-09T00:18:07;2.47;;;0.50;;
72132;SDS011;60008;50.826;6.896;2022-09-09T00:21:21;2.08;;;0.50;;
72132;SDS011;60008;50.826;6.896;2022-09-09T00:23:55;1.67;;;0.40;;
72132;SDS011;60008;50.826;6.896;2022-09-09T00:32:00;4.60;;;0.50;;
72132;SDS011;60008;50.826;6.896;2022-09-09T00:34:37;1.85;;;0.60;;
72132;SDS011;60008;50.826;6.896;2022-09-09T00:37:13;1.60;;;0.40;;
72132;SDS011;60008;50.826;6.896;2022-09-09T00:39:42;2.45;;;0.43;;
72132;SDS011;60008;50.826;6.896;2022-09-09T00:47:37;2.55;;;0.45;;
72132;SDS011;60008;50.826;6.896;2022-09-09T00:56:01;2.25;;;0.40;;
72132;SDS011;60008;50.826;6.896;2022-09-09T00:58:31;3.15;;;0.70;;
72132;SDS011;60008;50.826;6.896;2022-09-09T01:03:29;1.67;;;0.47;;
72132;SDS011;60008;50.826;6.896;2022-09-09T01:11:47;2.97;;;0.50;;
72132;SDS011;60008;50.826;6.896;2022-09-09T01:14:22;2.03;;;0.52;;
72132;SDS011;60008;50.826;6.896;2022-09-09T01:16:59;1.87;;;0.60;;
72132;SDS011;60008;50.826;6.896;2022-09-09T01:22:33;2.70;;;0.70;;
72132;SDS011;60008;50.826;6.896;2022-09-09T01:27:55;1.50;;;0.38;;
72132;SDS011;60008;50.826;6.896;2022-09-09T01:30:25;2.90;;;0.67;;
72132;SDS011;60008;50.826;6.896;2022-09-09T01:32:54;3.63;;;0.65;;
72132;SDS011;60008;50.826;6.896;2022-09-09T01:37:54;4.03;;;0.50;;
72132;SDS011;60008;50.826;6.896;2022-09-09T01:40:20;1.90;;;0.68;;
72132;SDS011;60008;50.826;6.896;2022-09-09T01:42:47;3.50;;;0.67;;
72132;SDS011;60008;50.826;6.896;2022-09-09T01:45:13;3.15;;;0.60;;
72132;SDS011;60008;50.826;6.896;2022-09-09T01:47:40;3.20;;;0.93;;
72132;SDS011;60008;50.826;6.896;2022-09-09T01:50:08;2.70;;;0.63;;
72132;SDS011;60008;50.826;6.896;2022-09-09T01:52:37;3.72;;;0.77;;
72132;SDS011;60008;50.826;6.896;2022-09-09T01:55:04;3.67;;;0.60;;
72132;SDS011;60008;50.826;6.896;2022-09-09T02:00:36;3.53;;;0.60;;
72132;SDS011;60008;50.826;6.896;2022-09-09T02:03:18;3.45;;;0.70;;
72132;SDS011;60008;50.826;6.896;2022-09-09T02:08:50;2.40;;;0.60;;
72132;SDS011;60008;50.826;6.896;2022-09-09T02:11:20;1.65;;;0.60;;
72132;SDS011;60008;50.826;6.896;2022-09-09T02:13:49;3.92;;;0.60;;
72132;SDS011;60008;50.826;6.896;2022-09-09T02:16:23;2.97;;;0.68;;
72132;SDS011;60008;50.826;6.896;2022-09-09T02:19:01;1.98;;;0.65;;
72132;SDS011;60008;50.826;6.896;2022-09-09T02:21:29;2.70;;;0.90;;
72132;SDS011;60008;50.826;6.896;2022-09-09T02:23:58;2.72;;;0.57;;
72132;SDS011;60008;50.826;6.896;2022-09-09T02:26:31;3.72;;;0.68;;
72132;SDS011;60008;50.826;6.896;2022-09-09T02:29:01;1.70;;;0.50;;
72132;SDS011;60008;50.826;6.896;2022-09-09T02:31:30;2.15;;;0.57;;
72132;SDS011;60008;50.826;6.896;2022-09-09T02:34:02;5.27;;;0.60;;
72132;SDS011;60008;50.826;6.896;2022-09-09T02:36:31;4.60;;;0.80;;
72132;SDS011;60008;50.826;6.896;2022-09-09T02:39:00;3.42;;;0.60;;
72132;SDS011;60008;50.826;6.896;2022-09-09T02:41:38;2.72;;;0.60;;
72132;SDS011;60008;50.826;6.896;2022-09-09T02:44:10;2.60;;;0.70;;
72132;SDS011;60008;50.826;6.896;2022-09-09T02:46:43;3.93;;;0.53;;
72132;SDS011;60008;50.826;6.896;2022-09-09T02:52:17;3.15;;;0.90;;
72132;SDS011;60008;50.826;6.896;2022-09-09T02:54:49;2.63;;;0.63;;
72132;SDS011;60008;50.826;6.896;2022-09-09T02:57:25;3.85;;;0.70;;
72132;SDS011;60008;50.826;6.896;2022-09-09T02:59:56;2.97;;;1.17;;
72132;SDS011;60008;50.826;6.896;2022-09-09T03:02:24;2.40;;;0.70;;
72132;SDS011;60008;50.826;6.896;2022-09-09T03:04:51;4.88;;;0.93;;
72132;SDS011;60008;50.826;6.896;2022-09-09T03:07:18;2.05;;;0.77;;
72132;SDS011;60008;50.826;6.896;2022-09-09T03:09:45;3.00;;;0.73;;
72132;SDS011;60008;50.826;6.896;2022-09-09T03:12:12;3.10;;;0.70;;
72132;SDS011;60008;50.826;6.896;2022-09-09T03:14:38;2.45;;;0.70;;
72132;SDS011;60008;50.826;6.896;2022-09-09T03:17:09;3.70;;;0.70;;
72132;SDS011;60008;50.826;6.896;2022-09-09T03:19:35;3.58;;;0.80;;
72132;SDS011;60008;50.826;6.896;2022-09-09T03:22:02;2.38;;;0.70;;
72132;SDS011;60008;50.826;6.896;2022-09-09T03:24:30;5.27;;;1.10;;
72132;SDS011;60008;50.826;6.896;2022-09-09T03:26:56;5.32;;;0.88;;
72132;SDS011;60008;50.826;6.896;2022-09-09T03:29:23;4.45;;;0.80;;
72132;SDS011;60008;50.826;6.896;2022-09-09T03:31:50;2.22;;;0.80;;
72132;SDS011;60008;50.826;6.896;2022-09-09T03:34:17;4.75;;;1.10;;
72132;SDS011;60008;50.826;6.896;2022-09-09T03:36:43;2.33;;;0.80;;
72132;SDS011;60008;50.826;6.896;2022-09-09T03:39:10;4.63;;;0.80;;
72132;SDS011;60008;50.826;6.896;2022-09-09T03:41:37;2.00;;;1.00;;
72132;SDS011;60008;50.826;6.896;2022-09-09T03:44:03;2.20;;;0.70;;
72132;SDS011;60008;50.826;6.896;2022-09-09T03:46:30;6.20;;;0.85;;
72132;SDS011;60008;50.826;6.896;2022-09-09T03:48:57;3.17;;;0.80;;
72132;SDS011;60008;50.826;6.896;2022-09-09T03:51:24;6.88;;;0.82;;
72132;SDS011;60008;50.826;6.896;2022-09-09T03:53:50;3.15;;;0.70;;
72132;SDS011;60008;50.826;6.896;2022-09-09T03:56:17;5.55;;;0.70;;
72132;SDS011;60008;50.826;6.896;2022-09-09T03:58:43;4.50;;;0.85;;
72132;SDS011;60008;50.826;6.896;2022-09-09T04:01:13;2.50;;;0.70;;
72132;SDS011;60008;50.826;6.896;2022-09-09T04:03:40;3.60;;;0.88;;
72132;SDS011;60008;50.826;6.896;2022-09-09T04:06:07;3.45;;;0.82;;
72132;SDS011;60008;50.826;6.896;2022-09-09T04:08:35;3.47;;;0.68;;
72132;SDS011;60008;50.826;6.896;2022-09-09T04:11:02;4.50;;;0.80;;
72132;SDS011;60008;50.826;6.896;2022-09-09T04:13:31;3.10;;;0.80;;
72132;SDS011;60008;50.826;6.896;2022-09-09T04:15:59;3.95;;;0.77;;
72132;SDS011;60008;50.826;6.896;2022-09-09T04:18:27;3.33;;;0.77;;
72132;SDS011;60008;50.826;6.896;2022-09-09T04:20:56;3.92;;;0.60;;
72132;SDS011;60008;50.826;6.896;2022-09-09T04:23:26;3.08;;;1.00;;
72132;SDS011;60008;50.826;6.896;2022-09-09T04:25:56;4.47;;;1.00;;
72132;SDS011;60008;50.826;6.896;2022-09-09T04:28:24;5.05;;;0.98;;
72132;SDS011;60008;50.826;6.896;2022-09-09T04:30:53;4.70;;;0.90;;
72132;SDS011;60008;50.826;6.896;2022-09-09T04:33:20;3.85;;;0.80;;
72132;SDS011;60008;50.826;6.896;2022-09-09T04:35:48;3.92;;;0.88;;
72132;SDS011;60008;50.826;6.896;2022-09-09T04:38:18;5.60;;;0.80;;
72132;SDS011;60008;50.826;6.896;2022-09-09T04:40:49;4.10;;;0.68;;
72132;SDS011;60008;50.826;6.896;2022-09-09T04:43:17;4.32;;;0.90;;
72132;SDS011;60008;50.826;6.896;2022-09-09T04:45:46;3.72;;;0.80;;
72132;SDS011;60008;50.826;6.896;2022-09-09T04:48:14;3.45;;;0.77;;
72132;SDS011;60008;50.826;6.896;2022-09-09T04:50:41;5.10;;;0.83;;
72132;SDS011;60008;50.826;6.896;2022-09-09T04:53:07;4.45;;;0.80;;
72132;SDS011;60008;50.826;6.896;2022-09-09T04:55:34;3.03;;;0.57;;
72132;SDS011;60008;50.826;6.896;2022-09-09T04:58:04;4.20;;;0.73;;
72132;SDS011;60008;50.826;6.896;2022-09-09T05:00:32;3.95;;;1.25;;
72132;SDS011;60008;50.826;6.896;2022-09-09T05:03:02;4.03;;;0.80;;
72132;SDS011;60008;50.826;6.896;2022-09-09T05:05:30;4.13;;;0.60;;
72132;SDS011;60008;50.826;6.896;2022-09-09T05:08:04;2.00;;;0.60;;
72132;SDS011;60008;50.826;6.896;2022-09-09T05:10:33;2.33;;;0.70;;
72132;SDS011;60008;50.826;6.896;2022-09-09T05:13:02;3.95;;;0.70;;
72132;SDS011;60008;50.826;6.896;2022-09-09T05:15:29;3.63;;;0.63;;
72132;SDS011;60008;50.826;6.896;2022-09-09T05:17:58;4.22;;;0.65;;
72132;SDS011;60008;50.826;6.896;2022-09-09T05:20:26;2.45;;;0.50;;
72132;SDS011;60008;50.826;6.896;2022-09-09T05:22:53;3.58;;;0.70;;
72132;SDS011;60008;50.826;6.896;2022-09-09T05:25:20;2.15;;;0.57;;
72132;SDS011;60008;50.826;6.896;2022-09-09T05:27:48;1.77;;;0.53;;
72132;SDS011;60008;50.826;6.896;2022-09-09T05:30:15;1.67;;;0.60;;
72132;SDS011;60008;50.826;6.896;2022-09-09T05:32:42;3.53;;;0.70;;
72132;SDS011;60008;50.826;6.896;2022-09-09T05:35:09;4.03;;;0.70;;
72132;SDS011;60008;50.826;6.896;2022-09-09T05:37:36;3.83;;;0.70;;
72132;SDS011;60008;50.826;6.896;2022-09-09T05:40:02;2.80;;;0.60;;
72132;SDS011;60008;50.826;6.896;2022-09-09T05:42:30;2.78;;;0.55;;
72132;SDS011;60008;50.826;6.896;2022-09-09T05:44:57;3.30;;;0.65;;
72132;SDS011;60008;50.826;6.896;2022-09-09T05:47:24;3.55;;;0.70;;
72132;SDS011;60008;50.826;6.896;2022-09-09T05:49:54;5.13;;;0.70;;
72132;SDS011;60008;50.826;6.896;2022-09-09T05:52:21;4.80;;;0.50;;
72132;SDS011;60008;50.826;6.896;2022-09-09T05:54:48;2.40;;;0.60;;
72132;SDS011;60008;50.826;6.896;2022-09-09T05:57:15;3.17;;;0.70;;
72132;SDS011;60008;50.826;6.896;2022-09-09T05:59:41;4.07;;;0.77;;
72132;SDS011;60008;50.826;6.896;2022-09-09T06:02:08;5.72;;;0.82;;
72132;SDS011;60008;50.826;6.896;2022-09-09T06:04:35;2.00;;;0.50;;
72132;SDS011;60008;50.826;6.896;2022-09-09T06:07:01;1.58;;;0.57;;
72132;SDS011;60008;50.826;6.896;2022-09-09T06:09:28;3.97;;;0.80;;
72132;SDS011;60008;50.826;6.896;2022-09-09T06:11:56;4.28;;;0.60;;
72132;SDS011;60008;50.826;6.896;2022-09-09T06:14:24;3.00;;;0.77;;
72132;SDS011;60008;50.826;6.896;2022-09-09T06:16:51;3.57;;;0.90;;
72132;SDS011;60008;50.826;6.896;2022-09-09T06:19:18;7.63;;;0.90;;
72132;SDS011;60008;50.826;6.896;2022-09-09T06:21:46;4.28;;;0.77;;
72132;SDS011;60008;50.826;6.896;2022-09-09T06:24:13;2.45;;;0.63;;
72132;SDS011;60008;50.826;6.896;2022-09-09T06:26:43;5.18;;;0.88;;
72132;SDS011;60008;50.826;6.896;2022-09-09T06:29:11;2.40;;;0.77;;
72132;SDS011;60008;50.826;6.896;2022-09-09T06:31:38;4.07;;;0.70;;
72132;SDS011;60008;50.826;6.896;2022-09-09T06:34:05;3.97;;;1.10;;
72132;SDS011;60008;50.826;6.896;2022-09-09T06:36:34;5.90;;;0.90;;
72132;SDS011;60008;50.826;6.896;2022-09-09T06:39:03;4.30;;;0.80;;
72132;SDS011;60008;50.826;6.896;2022-09-09T06:41:31;3.97;;;1.00;;
72132;SDS011;60008;50.826;6.896;2022-09-09T06:43:59;3.47;;;0.80;;
72132;SDS011;60008;50.826;6.896;2022-09-09T06:46:26;6.55;;;1.00;;
72132;SDS011;60008;50.826;6.896;2022-09-09T06:48:55;5.22;;;0.95;;
72132;SDS011;60008;50.826;6.896;2022-09-09T06:51:31;3.40;;;0.75;;
72132;SDS011;60008;50.826;6.896;2022-09-09T06:54:00;3.40;;;0.60;;
72132;SDS011;60008;50.826;6.896;2022-09-09T06:56:33;2.15;;;0.77;;
72132;SDS011;60008;50.826;6.896;2022-09-09T06:59:07;3.53;;;0.85;;
72132;SDS011;60008;50.826;6.896;2022-09-09T07:01:36;5.30;;;1.00;;
72132;SDS011;60008;50.826;6.896;2022-09-09T07:04:06;2.58;;;0.82;;
72132;SDS011;60008;50.826;6.896;2022-09-09T07:06:36;4.33;;;0.87;;
72132;SDS011;60008;50.826;6.896;2022-09-09T07:09:06;4.72;;;1.30;;
72132;SDS011;60008;50.826;6.896;2022-09-09T07:11:38;6.15;;;1.00;;
72132;SDS011;60008;50.826;6.896;2022-09-09T07:14:07;2.63;;;0.60;;
72132;SDS011;60008;50.826;6.896;2022-09-09T07:16:35;5.80;;;0.82;;
72132;SDS011;60008;50.826;6.896;2022-09-09T07:19:03;4.07;;;0.70;;
72132;SDS011;60008;50.826;6.896;2022-09-09T07:21:30;4.25;;;0.88;;
72132;SDS011;60008;50.826;6.896;2022-09-09T07:23:58;3.28;;;0.90;;
72132;SDS011;60008;50.826;6.896;2022-09-09T07:26:25;2.53;;;0.60;;
72132;SDS011;60008;50.826;6.896;2022-09-09T07:28:54;5.82;;;1.00;;
72132;SDS011;60008;50.826;6.896;2022-09-09T07:31:25;3.77;;;0.80;;
72132;SDS011;60008;50.826;6.896;2022-09-09T07:33:57;3.15;;;0.77;;
72132;SDS011;60008;50.826;6.896;2022-09-09T07:36:29;3.90;;;0.68;;
72132;SDS011;60008;50.826;6.896;2022-09-09T07:39:05;5.10;;;0.93;;
72132;SDS011;60008;50.826;6.896;2022-09-09T07:41:38;2.15;;;0.70;;
72132;SDS011;60008;50.826;6.896;2022-09-09T07:44:10;3.17;;;0.70;;
72132;SDS011;60008;50.826;6.896;2022-09-09T07:46:41;3.63;;;0.60;;
72132;SDS011;60008;50.826;6.896;2022-09-09T07:49:09;5.35;;;1.00;;
72132;SDS011;60008;50.826;6.896;2022-09-09T07:51:38;6.65;;;1.10;;
72132;SDS011;60008;50.826;6.896;2022-09-09T07:54:08;5.65;;;0.93;;
72132;SDS011;60008;50.826;6.896;2022-09-09T07:56:37;3.80;;;0.90;;
72132;SDS011;60008;50.826;6.896;2022-09-09T07:59:05;4.95;;;0.70;;
72132;SDS011;60008;50.826;6.896;2022-09-09T08:01:34;1.83;;;0.50;;
72132;SDS011;60008;50.826;6.896;2022-09-09T08:04:04;1.80;;;0.60;;
72132;SDS011;60008;50.826;6.896;2022-09-09T08:06:37;2.28;;;0.57;;
72132;SDS011;60008;50.826;6.896;2022-09-09T08:09:06;7.47;;;0.80;;
72132;SDS011;60008;50.826;6.896;2022-09-09T08:11:34;5.15;;;0.90;;
72132;SDS011;60008;50.826;6.896;2022-09-09T08:14:04;6.47;;;1.02;;
72132;SDS011;60008;50.826;6.896;2022-09-09T08:16:37;5.75;;;0.80;;
72132;SDS011;60008;50.826;6.896;2022-09-09T08:19:06;5.82;;;0.90;;
72132;SDS011;60008;50.826;6.896;2022-09-09T08:21:34;3.23;;;0.70;;
72132;SDS011;60008;50.826;6.896;2022-09-09T08:24:03;3.83;;;0.60;;
72132;SDS011;60008;50.826;6.896;2022-09-09T08:26:35;2.60;;;0.80;;
72132;SDS011;60008;50.826;6.896;2022-09-09T08:29:04;2.22;;;0.50;;
72132;SDS011;60008;50.826;6.896;2022-09-09T08:31:36;3.17;;;0.55;;
72132;SDS011;60008;50.826;6.896;2022-09-09T08:34:04;4.33;;;0.80;;
72132;SDS011;60008;50.826;6.896;2022-09-09T08:36:33;8.95;;;0.77;;
72132;SDS011;60008;50.826;6.896;2022-09-09T08:39:03;4.25;;;1.20;;
72132;SDS011;60008;50.826;6.896;2022-09-09T08:46:46;4.40;;;0.77;;
72132;SDS011;60008;50.826;6.896;2022-09-09T08:51:53;5.18;;;1.20;;
72132;SDS011;60008;50.826;6.896;2022-09-09T08:54:23;4.72;;;0.90;;
72132;SDS011;60008;50.826;6.896;2022-09-09T08:57:14;3.13;;;0.70;;
72132;SDS011;60008;50.826;6.896;2022-09-09T08:59:48;4.37;;;0.70;;
72132;SDS011;60008;50.826;6.896;2022-09-09T09:02:27;3.60;;;0.70;;
72132;SDS011;60008;50.826;6.896;2022-09-09T09:05:48;1.42;;;0.52;;
72132;SDS011;60008;50.826;6.896;2022-09-09T09:10:57;2.45;;;0.80;;
72132;SDS011;60008;50.826;6.896;2022-09-09T09:13:30;5.00;;;0.70;;
72132;SDS011;60008;50.826;6.896;2022-09-09T09:18:51;1.88;;;0.60;;
72132;SDS011;60008;50.826;6.896;2022-09-09T09:23:57;4.25;;;1.05;;
72132;SDS011;60008;50.826;6.896;2022-09-09T09:26:33;3.47;;;0.63;;
72132;SDS011;60008;50.826;6.896;2022-09-09T09:29:08;6.80;;;0.80;;
72132;SDS011;60008;50.826;6.896;2022-09-09T09:31:38;3.00;;;0.75;;
72132;SDS011;60008;50.826;6.896;2022-09-09T09:34:05;4.00;;;0.70;;
72132;SDS011;60008;50.826;6.896;2022-09-09T09:36:37;1.95;;;0.60;;
72132;SDS011;60008;50.826;6.896;2022-09-09T09:39:07;3.07;;;0.70;;
72132;SDS011;60008;50.826;6.896;2022-09-09T09:41:55;4.95;;;1.30;;
72132;SDS011;60008;50.826;6.896;2022-09-09T09:46:52;5.07;;;0.77;;
72132;SDS011;60008;50.826;6.896;2022-09-09T09:49:19;3.38;;;0.70;;
72132;SDS011;60008;50.826;6.896;2022-09-09T09:51:46;1.60;;;0.70;;
72132;SDS011;60008;50.826;6.896;2022-09-09T09:56:39;5.30;;;1.33;;
72132;SDS011;60008;50.826;6.896;2022-09-09T09:59:59;2.25;;;0.90;;
72132;SDS011;60008;50.826;6.896;2022-09-09T10:04:46;2.23;;;0.70;;
72132;SDS011;60008;50.826;6.896;2022-09-09T10:07:20;2.78;;;0.70;;
72132;SDS011;60008;50.826;6.896;2022-09-09T10:09:50;3.03;;;0.85;;
72132;SDS011;60008;50.826;6.896;2022-09-09T10:12:25;4.18;;;0.77;;
72132;SDS011;60008;50.826;6.896;2022-09-09T10:17:27;3.60;;;0.80;;
72132;SDS011;60008;50.826;6.896;2022-09-09T10:23:00;1.63;;;0.60;;
72132;SDS011;60008;50.826;6.896;2022-09-09T10:37:01;2.75;;;0.80;;
72132;SDS011;60008;50.826;6.896;2022-09-09T10:39:37;2.85;;;0.88;;
72132;SDS011;60008;50.826;6.896;2022-09-09T10:42:14;3.83;;;1.10;;
72132;SDS011;60008;50.826;6.896;2022-09-09T10:55:41;2.70;;;0.75;;
72132;SDS011;60008;50.826;6.896;2022-09-09T10:58:31;3.80;;;0.60;;
72132;SDS011;60008;50.826;6.896;2022-09-09T11:01:06;1.73;;;0.68;;
72132;SDS011;60008;50.826;6.896;2022-09-09T11:03:42;4.47;;;1.00;;
72132;SDS011;60008;50.826;6.896;2022-09-09T11:06:13;4.40;;;0.65;;
72132;SDS011;60008;50.826;6.896;2022-09-09T11:08:44;2.95;;;0.85;;
72132;SDS011;60008;50.826;6.896;2022-09-09T11:13:55;2.67;;;0.68;;
72132;SDS011;60008;50.826;6.896;2022-09-09T11:16:41;2.17;;;0.82;;
72132;SDS011;60008;50.826;6.896;2022-09-09T11:19:21;4.47;;;0.80;;
72132;SDS011;60008;50.826;6.896;2022-09-09T11:21:55;1.20;;;0.47;;
72132;SDS011;60008;50.826;6.896;2022-09-09T11:24:29;4.00;;;0.80;;
72132;SDS011;60008;50.826;6.896;2022-09-09T11:27:00;4.95;;;0.73;;
72132;SDS011;60008;50.826;6.896;2022-09-09T11:32:18;3.00;;;0.90;;
72132;SDS011;60008;50.826;6.896;2022-09-09T11:35:38;2.33;;;0.70;;
72132;SDS011;60008;50.826;6.896;2022-09-09T11:40:28;4.13;;;0.70;;
72132;SDS011;60008;50.826;6.896;2022-09-09T11:43:01;1.58;;;0.70;;
72132;SDS011;60008;50.826;6.896;2022-09-09T11:45:35;2.75;;;0.80;;
72132;SDS011;60008;50.826;6.896;2022-09-09T11:48:03;2.85;;;0.80;;
72132;SDS011;60008;50.826;6.896;2022-09-09T11:50:33;2.63;;;0.80;;
72132;SDS011;60008;50.826;6.896;2022-09-09T11:53:25;5.68;;;0.90;;
72132;SDS011;60008;50.826;6.896;2022-09-09T11:58:37;1.88;;;0.73;;
72132;SDS011;60008;50.826;6.896;2022-09-09T12:04:07;3.07;;;0.93;;
72132;SDS011;60008;50.826;6.896;2022-09-09T12:06:57;3.78;;;1.08;;
72132;SDS011;60008;50.826;6.896;2022-09-09T12:19:47;2.85;;;0.80;;
72132;SDS011;60008;50.826;6.896;2022-09-09T12:22:29;1.50;;;0.60;;
72132;SDS011;60008;50.826;6.896;2022-09-09T12:33:18;4.00;;;0.60;;
72132;SDS011;60008;50.826;6.896;2022-09-09T12:35:47;4.10;;;0.80;;
72132;SDS011;60008;50.826;6.896;2022-09-09T12:38:23;4.95;;;1.13;;
72132;SDS011;60008;50.826;6.896;2022-09-09T12:40:58;3.13;;;0.80;;
72132;SDS011;60008;50.826;6.896;2022-09-09T12:43:25;2.13;;;0.70;;
72132;SDS011;60008;50.826;6.896;2022-09-09T12:46:00;3.40;;;0.80;;
72132;SDS011;60008;50.826;6.896;2022-09-09T12:48:39;1.70;;;0.70;;
72132;SDS011;60008;50.826;6.896;2022-09-09T12:53:52;4.18;;;0.93;;
72132;SDS011;60008;50.826;6.896;2022-09-09T12:56:20;2.70;;;0.60;;
72132;SDS011;60008;50.826;6.896;2022-09-09T12:58:49;1.60;;;0.60;;
72132;SDS011;60008;50.826;6.896;2022-09-09T13:01:25;4.35;;;0.60;;
72132;SDS011;60008;50.826;6.896;2022-09-09T13:03:52;2.67;;;0.70;;
72132;SDS011;60008;50.826;6.896;2022-09-09T13:06:21;3.40;;;1.50;;
72132;SDS011;60008;50.826;6.896;2022-09-09T13:08:58;4.10;;;0.50;;
72132;SDS011;60008;50.826;6.896;2022-09-09T13:11:31;1.70;;;0.75;;
72132;SDS011;60008;50.826;6.896;2022-09-09T13:14:04;3.15;;;1.63;;
72132;SDS011;60008;50.826;6.896;2022-09-09T13:16:33;6.75;;;2.28;;
72132;SDS011;60008;50.826;6.896;2022-09-09T13:19:08;6.65;;;3.50;;
72132;SDS011;60008;50.826;6.896;2022-09-09T13:21:40;8.20;;;3.93;;
72132;SDS011;60008;50.826;6.896;2022-09-09T13:24:21;5.80;;;1.90;;
72132;SDS011;60008;50.826;6.896;2022-09-09T13:26:54;2.40;;;1.25;;
72132;SDS011;60008;50.826;6.896;2022-09-09T13:29:27;7.38;;;1.20;;
72132;SDS011;60008;50.826;6.896;2022-09-09T13:32:05;4.30;;;1.70;;
72132;SDS011;60008;50.826;6.896;2022-09-09T13:34:34;1.70;;;1.00;;
72132;SDS011;60008;50.826;6.896;2022-09-09T13:37:05;4.07;;;0.60;;
72132;SDS011;60008;50.826;6.896;2022-09-09T13:39:36;1.40;;;0.57;;
72132;SDS011;60008;50.826;6.896;2022-09-09T13:42:03;4.50;;;0.57;;
72132;SDS011;60008;50.826;6.896;2022-09-09T13:44:31;1.38;;;0.50;;
72132;SDS011;60008;50.826;6.896;2022-09-09T13:47:03;2.50;;;0.60;;
72132;SDS011;60008;50.826;6.896;2022-09-09T13:49:35;1.77;;;0.63;;
72132;SDS011;60008;50.826;6.896;2022-09-09T13:52:04;4.85;;;0.70;;
72132;SDS011;60008;50.826;6.896;2022-09-09T13:54:48;1.95;;;0.60;;
72132;SDS011;60008;50.826;6.896;2022-09-09T13:57:23;3.70;;;0.70;;
72132;SDS011;60008;50.826;6.896;2022-09-09T13:59:52;2.00;;;0.50;;
72132;SDS011;60008;50.826;6.896;2022-09-09T14:02:36;1.77;;;0.47;;
72132;SDS011;60008;50.826;6.896;2022-09-09T14:05:05;1.48;;;0.30;;
72132;SDS011;60008;50.826;6.896;2022-09-09T14:07:31;0.90;;;0.40;;
72132;SDS011;60008;50.826;6.896;2022-09-09T14:09:58;1.55;;;0.82;;
72132;SDS011;60008;50.826;6.896;2022-09-09T14:12:26;2.27;;;0.50;;
72132;SDS011;60008;50.826;6.896;2022-09-09T14:14:53;2.65;;;0.43;;
72132;SDS011;60008;50.826;6.896;2022-09-09T14:17:19;3.75;;;0.60;;
72132;SDS011;60008;50.826;6.896;2022-09-09T14:19:46;1.20;;;0.43;;
72132;SDS011;60008;50.826;6.896;2022-09-09T14:22:12;1.05;;;0.43;;
72132;SDS011;60008;50.826;6.896;2022-09-09T14:24:39;1.77;;;0.50;;
72132;SDS011;60008;50.826;6.896;2022-09-09T14:27:05;1.63;;;0.50;;
72132;SDS011;60008;50.826;6.896;2022-09-09T14:29:32;0.90;;;0.35;;
72132;SDS011;60008;50.826;6.896;2022-09-09T14:31:59;0.85;;;0.35;;
72132;SDS011;60008;50.826;6.896;2022-09-09T14:34:27;3.10;;;0.40;;
72132;SDS011;60008;50.826;6.896;2022-09-09T14:36:53;1.70;;;0.40;;
72132;SDS011;60008;50.826;6.896;2022-09-09T14:39:20;4.75;;;0.52;;
72132;SDS011;60008;50.826;6.896;2022-09-09T14:41:46;1.90;;;0.47;;
72132;SDS011;60008;50.826;6.896;2022-09-09T14:44:13;3.72;;;0.60;;
72132;SDS011;60008;50.826;6.896;2022-09-09T14:46:39;3.80;;;0.63;;
72132;SDS011;60008;50.826;6.896;2022-09-09T14:49:08;2.03;;;0.70;;
72132;SDS011;60008;50.826;6.896;2022-09-09T14:51:36;2.00;;;0.60;;
72132;SDS011;60008;50.826;6.896;2022-09-09T14:54:02;2.42;;;0.82;;
72132;SDS011;60008;50.826;6.896;2022-09-09T14:56:30;1.85;;;0.60;;
72132;SDS011;60008;50.826;6.896;2022-09-09T14:59:00;5.47;;;0.88;;
72132;SDS011;60008;50.826;6.896;2022-09-09T15:01:28;1.43;;;0.60;;
72132;SDS011;60008;50.826;6.896;2022-09-09T15:03:56;2.90;;;0.65;;
72132;SDS011;60008;50.826;6.896;2022-09-09T15:06:28;2.08;;;0.57;;
72132;SDS011;60008;50.826;6.896;2022-09-09T15:08:59;1.98;;;0.60;;
72132;SDS011;60008;50.826;6.896;2022-09-09T15:11:27;2.50;;;0.65;;
72132;SDS011;60008;50.826;6.896;2022-09-09T15:13:56;1.20;;;0.60;;
72132;SDS011;60008;50.826;6.896;2022-09-09T15:16:24;4.47;;;0.90;;
72132;SDS011;60008;50.826;6.896;2022-09-09T15:18:57;3.15;;;0.80;;
72132;SDS011;60008;50.826;6.896;2022-09-09T15:21:26;1.98;;;0.60;;
72132;SDS011;60008;50.826;6.896;2022-09-09T15:23:54;1.63;;;0.60;;
72132;SDS011;60008;50.826;6.896;2022-09-09T15:26:22;2.80;;;0.60;;
72132;SDS011;60008;50.826;6.896;2022-09-09T15:28:49;2.88;;;0.50;;
72132;SDS011;60008;50.826;6.896;2022-09-09T15:33:51;2.33;;;0.52;;
72132;SDS011;60008;50.826;6.896;2022-09-09T15:36:21;2.28;;;0.43;;
72132;SDS011;60008;50.826;6.896;2022-09-09T15:38:50;1.43;;;0.60;;
72132;SDS011;60008;50.826;6.896;2022-09-09T15:41:18;0.82;;;0.30;;
72132;SDS011;60008;50.826;6.896;2022-09-09T15:43:47;3.42;;;0.32;;
72132;SDS011;60008;50.826;6.896;2022-09-09T15:48:55;1.13;;;0.30;;
72132;SDS011;60008;50.826;6.896;2022-09-09T15:51:24;2.93;;;0.40;;
72132;SDS011;60008;50.826;6.896;2022-09-09T15:54:10;1.60;;;0.30;;
72132;SDS011;60008;50.826;6.896;2022-09-09T15:56:38;2.60;;;0.40;;
72132;SDS011;60008;50.826;6.896;2022-09-09T15:59:06;1.15;;;0.50;;
72132;SDS011;60008;50.826;6.896;2022-09-09T16:01:32;1.73;;;0.50;;
72132;SDS011;60008;50.826;6.896;2022-09-09T16:04:00;4.67;;;0.70;;
72132;SDS011;60008;50.826;6.896;2022-09-09T16:06:28;5.15;;;0.60;;
72132;SDS011;60008;50.826;6.896;2022-09-09T16:08:56;5.20;;;0.60;;
72132;SDS011;60008;50.826;6.896;2022-09-09T16:11:28;3.63;;;0.60;;
72132;SDS011;60008;50.826;6.896;2022-09-09T16:14:00;3.60;;;0.80;;
72132;SDS011;60008;50.826;6.896;2022-09-09T16:16:27;3.30;;;0.70;;
72132;SDS011;60008;50.826;6.896;2022-09-09T16:18:59;2.10;;;0.70;;
72132;SDS011;60008;50.826;6.896;2022-09-09T16:21:29;3.85;;;0.90;;
72132;SDS011;60008;50.826;6.896;2022-09-09T16:23:59;3.10;;;1.00;;
72132;SDS011;60008;50.826;6.896;2022-09-09T16:26:27;2.72;;;1.00;;
72132;SDS011;60008;50.826;6.896;2022-09-09T16:28:57;2.77;;;0.60;;
72132;SDS011;60008;50.826;6.896;2022-09-09T16:31:27;5.90;;;0.90;;
72132;SDS011;60008;50.826;6.896;2022-09-09T16:33:54;6.57;;;1.00;;
72132;SDS011;60008;50.826;6.896;2022-09-09T16:36:22;2.22;;;0.80;;
72132;SDS011;60008;50.826;6.896;2022-09-09T16:38:54;3.28;;;0.80;;
72132;SDS011;60008;50.826;6.896;2022-09-09T16:41:23;5.00;;;0.80;;
72132;SDS011;60008;50.826;6.896;2022-09-09T16:43:53;2.88;;;0.80;;
72132;SDS011;60008;50.826;6.896;2022-09-09T16:46:20;1.92;;;0.80;;
72132;SDS011;60008;50.826;6.896;2022-09-09T16:48:48;3.20;;;0.73;;
72132;SDS011;60008;50.826;6.896;2022-09-09T16:51:19;3.88;;;0.80;;
72132;SDS011;60008;50.826;6.896;2022-09-09T16:53:50;3.43;;;0.87;;
72132;SDS011;60008;50.826;6.896;2022-09-09T16:56:18;3.30;;;0.85;;
72132;SDS011;60008;50.826;6.896;2022-09-09T16:58:53;3.28;;;0.70;;
72132;SDS011;60008;50.826;6.896;2022-09-09T17:01:22;3.95;;;0.88;;
72132;SDS011;60008;50.826;6.896;2022-09-09T17:03:53;5.10;;;0.90;;
72132;SDS011;60008;50.826;6.896;2022-09-09T17:06:26;4.43;;;0.97;;
72132;SDS011;60008;50.826;6.896;2022-09-09T17:08:55;2.40;;;0.70;;
72132;SDS011;60008;50.826;6.896;2022-09-09T17:11:23;2.67;;;0.77;;
72132;SDS011;60008;50.826;6.896;2022-09-09T17:13:50;3.70;;;1.17;;
72132;SDS011;60008;50.826;6.896;2022-09-09T17:16:19;2.53;;;0.90;;
72132;SDS011;60008;50.826;6.896;2022-09-09T17:18:51;2.30;;;0.80;;
72132;SDS011;60008;50.826;6.896;2022-09-09T17:21:19;4.10;;;1.00;;
72132;SDS011;60008;50.826;6.896;2022-09-09T17:23:51;2.65;;;1.20;;
72132;SDS011;60008;50.826;6.896;2022-09-09T17:26:19;2.63;;;1.00;;
72132;SDS011;60008;50.826;6.896;2022-09-09T17:28:48;3.80;;;1.17;;
72132;SDS011;60008;50.826;6.896;2022-09-09T17:31:16;3.43;;;0.80;;
72132;SDS011;60008;50.826;6.896;2022-09-09T17:33:44;2.80;;;1.00;;